createdAt,value
2024-01-31T00:03:25.495Z,50.26
2024-01-31T00:08:27.297Z,50.64
2024-01-31T00:13:29.417Z,51.33
2024-01-31T00:18:31.436Z,50.33
2024-01-31T00:23:33.400Z,50.59
2024-01-31T00:28:35.437Z,50.47
2024-01-31T00:33:37.363Z,51.14
2024-01-31T00:38:39.194Z,51.01
2024-01-31T00:43:41.273Z,50.39
2024-01-31T00:48:44.379Z,50.51
2024-01-31T00:53:46.303Z,50.40
2024-01-31T00:58:48.582Z,50.88
2024-01-31T01:03:50.544Z,51.10
2024-01-31T01:08:52.686Z,50.88
2024-01-31T01:13:54.510Z,50.49
2024-01-31T01:18:56.374Z,50.63
2024-01-31T01:23:58.209Z,50.27
2024-01-31T01:29:00.331Z,50.05
2024-01-31T01:34:02.313Z,50.23
2024-01-31T01:39:05.067Z,49.99
2024-01-31T01:44:06.887Z,50.10
2024-01-31T01:49:09.110Z,50.26
2024-01-31T01:54:13.846Z,50.50
2024-01-31T01:59:17.106Z,49.73
2024-01-31T02:04:22.001Z,50.37
2024-01-31T02:09:24.684Z,50.02
2024-01-31T02:14:26.570Z,49.92
2024-01-31T02:19:28.467Z,50.52
2024-01-31T02:24:30.593Z,52.38
2024-01-31T02:29:32.478Z,51.21
2024-01-31T02:34:34.943Z,52.34
2024-01-31T02:39:36.901Z,52.33
2024-01-31T02:44:38.748Z,51.81
2024-01-31T02:49:40.690Z,52.38
2024-01-31T02:54:42.712Z,52.77
2024-01-31T02:59:44.530Z,52.52
2024-01-31T03:04:46.479Z,52.97
2024-01-31T03:09:48.484Z,52.74
2024-01-31T03:14:50.310Z,52.32
2024-01-31T03:19:52.280Z,52.37
2024-01-31T03:24:54.178Z,53.04
2024-01-31T03:29:57.812Z,53.06
2024-01-31T03:35:00.432Z,53.21
2024-01-31T03:40:02.445Z,52.87
2024-01-31T03:45:05.802Z,53.39
2024-01-31T03:50:08.165Z,53.35
2024-01-31T03:55:11.607Z,53.86
2024-01-31T04:00:14.069Z,53.65
2024-01-31T04:05:17.795Z,53.24
2024-01-31T04:10:19.826Z,53.38
2024-01-31T04:15:21.758Z,52.91
2024-01-31T04:20:23.632Z,53.34
2024-01-31T04:25:25.578Z,53.50
2024-01-31T04:30:30.060Z,53.63
2024-01-31T04:35:32.648Z,52.85
2024-01-31T04:40:34.573Z,53.09
2024-01-31T04:45:36.514Z,52.76
2024-01-31T04:50:38.475Z,53.13
2024-01-31T04:55:40.568Z,52.56
2024-01-31T05:00:42.630Z,52.54
2024-01-31T05:05:44.667Z,52.87
2024-01-31T05:10:47.194Z,52.44
2024-01-31T05:15:49.035Z,52.33
2024-01-31T05:20:50.867Z,52.19
2024-01-31T05:25:52.812Z,52.19
2024-01-31T05:30:54.874Z,52.28
2024-01-31T05:35:59.138Z,52.04
2024-01-31T05:41:01.437Z,51.74
2024-01-31T05:46:03.309Z,52.02
2024-01-31T05:51:05.315Z,52.33
2024-01-31T05:56:07.862Z,52.44
2024-01-31T06:01:09.759Z,52.30
2024-01-31T06:06:11.736Z,52.21
2024-01-31T06:11:13.605Z,53.01
2024-01-31T06:16:16.320Z,53.04
2024-01-31T06:21:18.189Z,52.48
2024-01-31T06:26:20.037Z,52.61
2024-01-31T06:31:30.141Z,52.48
2024-01-31T06:36:32.103Z,52.19
2024-01-31T06:41:36.341Z,51.93
2024-01-31T06:46:38.704Z,52.51
2024-01-31T06:51:40.686Z,52.83
2024-01-31T06:56:42.521Z,52.40
2024-01-31T07:01:44.522Z,52.07
2024-01-31T07:06:46.450Z,52.51
2024-01-31T07:11:48.559Z,52.65
2024-01-31T07:16:50.390Z,52.58
2024-01-31T07:21:52.268Z,52.71
2024-01-31T07:26:54.232Z,52.60
2024-01-31T07:31:56.173Z,52.72
2024-01-31T07:36:58.075Z,52.21
2024-01-31T07:41:59.901Z,51.87
2024-01-31T07:47:04.586Z,52.01
2024-01-31T07:52:06.504Z,52.40
2024-01-31T07:57:08.337Z,51.54
2024-01-31T08:02:10.286Z,51.97
2024-01-31T08:07:13.923Z,51.44
2024-01-31T08:12:15.898Z,51.02
2024-01-31T08:17:17.964Z,51.24
2024-01-31T08:22:19.935Z,51.04
2024-01-31T08:27:21.852Z,51.21
2024-01-31T08:32:24.171Z,50.63
2024-01-31T08:37:26.006Z,50.79
2024-01-31T08:42:30.243Z,50.56
2024-01-31T08:47:32.283Z,50.60
2024-01-31T08:52:35.676Z,50.67
2024-01-31T08:57:37.713Z,51.06
2024-01-31T09:02:39.571Z,50.64
2024-01-31T09:07:41.526Z,50.98
2024-01-31T09:12:43.739Z,50.84
2024-01-31T09:17:47.553Z,50.77
2024-01-31T09:22:49.449Z,50.71
2024-01-31T09:27:51.453Z,50.47
2024-01-31T09:32:53.320Z,51.12
2024-01-31T09:37:55.390Z,50.84
2024-01-31T09:42:57.320Z,50.83
2024-01-31T09:48:00.595Z,51.01
2024-01-31T09:53:03.159Z,51.39
2024-01-31T09:58:05.210Z,51.35
2024-01-31T10:03:07.219Z,51.07
2024-01-31T10:08:09.279Z,51.33
2024-01-31T10:13:11.189Z,51.35
2024-01-31T10:18:14.043Z,50.96
2024-01-31T10:23:16.361Z,50.82
2024-01-31T10:28:21.316Z,51.01
2024-01-31T10:33:25.237Z,50.92
2024-01-31T10:38:27.606Z,51.21
2024-01-31T10:43:30.537Z,51.33
2024-01-31T10:48:32.573Z,51.34
2024-01-31T10:53:36.055Z,51.47
2024-01-31T10:58:38.254Z,51.42
2024-01-31T11:03:46.336Z,51.17
2024-01-31T11:08:48.980Z,51.74
2024-01-31T11:13:57.518Z,51.53
2024-01-31T11:19:00.362Z,51.69
2024-01-31T11:24:02.491Z,51.33
2024-01-31T11:29:04.696Z,51.73
2024-01-31T11:34:07.086Z,51.77
2024-01-31T11:39:09.289Z,52.03
2024-01-31T11:44:11.290Z,51.58
2024-01-31T11:49:16.038Z,52.11
2024-01-31T11:54:18.130Z,51.82
2024-01-31T11:59:20.175Z,51.47
2024-01-31T12:04:25.795Z,51.60
2024-01-31T12:09:28.052Z,51.75
2024-01-31T12:14:30.602Z,51.55
2024-01-31T12:19:32.552Z,51.31
2024-01-31T12:24:34.490Z,51.11
2024-01-31T12:29:40.333Z,51.12
2024-01-31T12:34:42.614Z,51.36
2024-01-31T12:39:44.930Z,51.36
2024-01-31T12:44:47.283Z,51.46
2024-01-31T12:49:49.219Z,51.73
2024-01-31T12:54:53.260Z,51.80
2024-01-31T12:59:55.134Z,51.25
2024-01-31T13:04:57.452Z,51.63
2024-01-31T13:09:59.812Z,51.52
2024-01-31T13:15:02.018Z,52.01
2024-01-31T13:20:04.466Z,51.38
2024-01-31T13:25:07.139Z,51.25
2024-01-31T13:30:13.035Z,51.94
2024-01-31T13:35:15.288Z,52.41
2024-01-31T13:40:17.211Z,52.56
2024-01-31T13:45:20.318Z,52.58
2024-01-31T13:50:22.234Z,52.21
2024-01-31T13:55:24.069Z,52.08
2024-01-31T14:00:25.935Z,52.24
2024-01-31T14:05:27.861Z,52.31
2024-01-31T14:10:29.736Z,52.62
2024-01-31T14:15:31.712Z,52.15
2024-01-31T14:20:38.371Z,52.27
2024-01-31T14:25:40.750Z,51.81
2024-01-31T14:30:42.554Z,51.79
2024-01-31T14:35:44.769Z,51.44
2024-01-31T14:40:46.678Z,51.27
2024-01-31T14:45:48.698Z,51.23
2024-01-31T14:50:50.677Z,51.52
2024-01-31T14:55:53.267Z,51.09
2024-01-31T15:00:55.392Z,50.57
2024-01-31T15:05:57.951Z,51.16
2024-01-31T15:11:00.086Z,50.83
2024-01-31T15:16:05.245Z,50.60
2024-01-31T15:21:07.400Z,50.33
2024-01-31T15:26:10.239Z,50.83
2024-01-31T15:31:12.946Z,49.82
2024-01-31T15:36:15.820Z,49.98
2024-01-31T15:41:18.394Z,50.46
2024-01-31T15:46:21.207Z,50.33
2024-01-31T15:51:26.332Z,49.66
2024-01-31T15:56:28.286Z,49.57
2024-01-31T16:01:32.656Z,49.24
2024-01-31T16:06:39.922Z,49.66
2024-01-31T16:11:42.960Z,49.46
2024-01-31T16:16:45.076Z,48.73
2024-01-31T16:21:49.919Z,48.75
2024-01-31T16:26:52.079Z,48.78
2024-01-31T16:31:54.038Z,48.93
2024-01-31T16:36:55.958Z,48.55
2024-01-31T16:41:57.889Z,48.72
2024-01-31T16:46:59.700Z,49.06
2024-01-31T16:52:01.537Z,48.92
2024-01-31T16:57:05.572Z,48.51
2024-01-31T17:02:07.590Z,48.83
2024-01-31T17:07:10.497Z,48.87
2024-01-31T17:12:12.403Z,48.80
2024-01-31T17:17:14.467Z,48.55
2024-01-31T17:22:16.350Z,48.76
2024-01-31T17:27:18.301Z,48.85
2024-01-31T17:32:20.138Z,48.13
2024-01-31T17:37:22.018Z,48.61
2024-01-31T17:42:23.998Z,48.72
2024-01-31T17:47:25.927Z,48.58
2024-01-31T17:52:27.824Z,48.23
2024-01-31T17:57:29.645Z,48.36
2024-01-31T18:02:32.978Z,48.49
2024-01-31T18:07:34.849Z,48.93
2024-01-31T18:12:36.912Z,48.69
2024-01-31T18:17:38.843Z,49.12
2024-01-31T18:22:40.772Z,48.82
2024-01-31T18:27:42.840Z,48.53
2024-01-31T18:32:44.790Z,49.06
2024-01-31T18:37:46.674Z,48.51
2024-01-31T18:42:48.521Z,49.14
2024-01-31T18:47:50.816Z,49.04
2024-01-31T18:52:52.771Z,49.17
2024-01-31T18:57:54.903Z,49.07
2024-01-31T19:02:57.971Z,49.65
2024-01-31T19:07:59.957Z,49.24
2024-01-31T19:13:02.756Z,49.27
2024-01-31T19:18:11.582Z,48.91
2024-01-31T19:23:14.685Z,48.44
2024-01-31T19:28:16.525Z,48.63
2024-01-31T19:33:18.686Z,48.70
2024-01-31T19:38:21.973Z,48.75
2024-01-31T19:43:24.014Z,48.78
2024-01-31T19:48:26.629Z,49.18
2024-01-31T19:53:30.581Z,49.00
2024-01-31T19:58:33.209Z,49.04
2024-01-31T20:03:38.489Z,48.90
2024-01-31T20:08:40.640Z,49.15
2024-01-31T20:13:42.928Z,48.83
2024-01-31T20:18:46.577Z,48.86
2024-01-31T20:23:49.948Z,49.25
2024-01-31T20:28:53.788Z,48.61
2024-01-31T20:33:57.101Z,48.82
2024-01-31T20:38:59.059Z,48.85
2024-01-31T20:44:01.557Z,49.62
2024-01-31T20:49:04.004Z,50.15
2024-01-31T20:54:06.149Z,50.24
2024-01-31T20:59:08.173Z,49.87
2024-01-31T21:04:10.164Z,49.38
2024-01-31T21:09:12.159Z,49.36
2024-01-31T21:14:15.340Z,49.46
2024-01-31T21:19:17.618Z,49.35
2024-01-31T21:24:19.870Z,49.14
2024-01-31T21:29:21.795Z,49.24
2024-01-31T21:34:23.630Z,48.74
2024-01-31T21:39:25.639Z,49.06
2024-01-31T21:44:27.941Z,49.09
2024-01-31T21:49:29.770Z,49.03
2024-01-31T21:54:31.644Z,48.99
2024-01-31T21:59:33.525Z,48.92
2024-01-31T22:04:35.595Z,49.34
2024-01-31T22:09:37.549Z,49.38
2024-01-31T22:14:42.294Z,49.75
2024-01-31T22:19:44.375Z,49.78
2024-01-31T22:24:46.314Z,49.97
2024-01-31T22:29:48.373Z,50.12
2024-01-31T22:34:50.329Z,50.27
2024-01-31T22:39:52.221Z,50.35
2024-01-31T22:44:54.093Z,50.74
2024-01-31T22:49:55.986Z,51.08
2024-01-31T22:55:01.447Z,50.61
2024-01-31T23:00:07.809Z,50.89
2024-01-31T23:05:09.785Z,51.15
2024-01-31T23:10:11.667Z,51.28
2024-01-31T23:15:13.971Z,51.17
2024-01-31T23:20:16.150Z,51.50
2024-01-31T23:25:17.963Z,51.08
2024-01-31T23:30:19.907Z,51.54
2024-01-31T23:35:22.037Z,51.45
2024-01-31T23:40:23.963Z,51.55
2024-01-31T23:45:25.862Z,51.92
2024-01-31T23:50:27.827Z,52.29
2024-01-31T23:55:29.683Z,51.97
